createdAt,value
2022-10-15T00:02:29.618Z,13.30
2022-10-15T00:05:02.262Z,13.40
2022-10-15T00:07:33.983Z,13.40
2022-10-15T00:10:05.985Z,13.40
2022-10-15T00:12:37.877Z,13.40
2022-10-15T00:15:10.740Z,13.40
2022-10-15T00:17:42.601Z,13.40
2022-10-15T00:20:14.464Z,13.40
2022-10-15T00:22:46.234Z,13.40
2022-10-15T00:25:18.004Z,13.40
2022-10-15T00:27:49.706Z,13.30
2022-10-15T00:30:23.042Z,13.40
2022-10-15T00:32:55.868Z,13.40
2022-10-15T00:35:27.588Z,13.40
2022-10-15T00:37:59.312Z,13.40
2022-10-15T00:40:31.253Z,13.40
2022-10-15T00:43:02.993Z,13.40
2022-10-15T00:45:34.840Z,13.40
2022-10-15T00:48:08.622Z,13.40
2022-10-15T00:50:40.528Z,13.40
2022-10-15T00:53:12.321Z,13.40
2022-10-15T00:55:44.248Z,13.30
2022-10-15T00:58:22.444Z,13.30
2022-10-15T01:00:55.380Z,13.30
2022-10-15T01:03:27.480Z,13.40
2022-10-15T01:05:59.630Z,13.40
2022-10-15T01:08:31.473Z,13.40
2022-10-15T01:11:40.747Z,13.40
2022-10-15T01:14:15.301Z,13.40
2022-10-15T01:17:16.199Z,13.40
2022-10-15T01:19:53.827Z,13.40
2022-10-15T01:22:38.283Z,13.40
2022-10-15T01:25:18.806Z,13.40
2022-10-15T01:27:58.331Z,13.40
2022-10-15T01:30:44.005Z,13.40
2022-10-15T01:33:35.504Z,13.40
2022-10-15T01:36:16.911Z,13.40
2022-10-15T01:39:19.586Z,13.40
2022-10-15T01:41:56.006Z,13.40
2022-10-15T01:44:35.263Z,13.40
2022-10-15T01:47:47.197Z,13.40
2022-10-15T01:50:22.783Z,13.40
2022-10-15T01:52:56.468Z,13.30
2022-10-15T01:55:30.459Z,13.30
2022-10-15T01:58:06.029Z,13.40
2022-10-15T02:00:39.762Z,13.40
2022-10-15T02:03:14.326Z,13.40
2022-10-15T02:05:56.567Z,13.30
2022-10-15T02:08:43.800Z,13.30
2022-10-15T02:11:16.870Z,13.30
2022-10-15T02:13:58.904Z,13.30
2022-10-15T02:16:47.515Z,13.30
2022-10-15T02:19:41.052Z,13.30
2022-10-15T02:22:37.856Z,13.40
2022-10-15T02:25:18.094Z,13.30
2022-10-15T02:27:54.000Z,13.40
2022-10-15T02:30:27.698Z,13.30
2022-10-15T02:33:00.225Z,13.40
2022-10-15T02:35:34.146Z,13.30
2022-10-15T02:38:08.744Z,13.30
2022-10-15T02:40:43.107Z,13.30
2022-10-15T02:43:18.586Z,13.40
2022-10-15T02:45:50.437Z,13.30
2022-10-15T02:48:22.990Z,13.30
2022-10-15T02:50:54.968Z,13.40
2022-10-15T02:53:26.701Z,13.40
2022-10-15T02:55:58.502Z,13.30
2022-10-15T02:58:30.945Z,13.30
2022-10-15T03:01:04.154Z,13.30
2022-10-15T03:03:36.120Z,13.30
2022-10-15T03:06:07.954Z,13.40
2022-10-15T03:08:39.728Z,13.40
2022-10-15T03:11:11.822Z,13.30
2022-10-15T03:13:43.698Z,13.30
2022-10-15T03:16:15.584Z,13.30
2022-10-15T03:18:49.796Z,13.30
2022-10-15T03:21:23.411Z,13.30
2022-10-15T03:23:55.309Z,13.30
2022-10-15T03:26:28.704Z,13.30
2022-10-15T03:29:00.516Z,13.30
2022-10-15T03:31:43.436Z,13.50
2022-10-15T03:34:15.443Z,13.20
2022-10-15T03:36:47.370Z,13.30
2022-10-15T03:39:20.299Z,13.20
2022-10-15T03:41:55.243Z,13.30
2022-10-15T03:44:34.875Z,13.30
2022-10-15T03:47:12.828Z,13.30
2022-10-15T03:49:50.636Z,13.40
2022-10-15T03:52:22.845Z,13.30
2022-10-15T03:54:56.126Z,13.30
2022-10-15T03:57:29.169Z,13.30
2022-10-15T04:00:08.316Z,13.30
2022-10-15T04:02:45.908Z,13.30
2022-10-15T04:05:28.872Z,13.30
2022-10-15T04:08:06.814Z,13.30
2022-10-15T04:10:42.222Z,13.30
2022-10-15T04:13:14.035Z,13.30
2022-10-15T04:15:47.336Z,13.60
2022-10-15T04:18:21.784Z,13.30
2022-10-15T04:21:01.508Z,13.30
2022-10-15T04:23:33.898Z,13.30
2022-10-15T04:26:32.195Z,13.30
2022-10-15T04:29:05.517Z,13.30
2022-10-15T04:31:37.660Z,13.30
2022-10-15T04:34:10.970Z,13.30
2022-10-15T04:36:42.785Z,13.30
2022-10-15T04:39:19.098Z,13.30
2022-10-15T04:41:51.291Z,13.30
2022-10-15T04:44:29.848Z,13.40
2022-10-15T04:47:02.824Z,13.30
2022-10-15T04:49:49.794Z,13.30
2022-10-15T04:53:00.127Z,13.30
2022-10-15T04:55:34.107Z,13.30
2022-10-15T04:58:07.392Z,13.30
2022-10-15T05:00:40.062Z,14.90
2022-10-15T05:03:27.717Z,13.50
2022-10-15T05:06:22.523Z,13.30
2022-10-15T05:08:59.533Z,13.30
2022-10-15T05:11:38.074Z,13.30
2022-10-15T05:14:16.322Z,13.30
2022-10-15T05:16:54.750Z,13.30
2022-10-15T05:19:26.521Z,13.30
2022-10-15T05:21:58.276Z,13.40
2022-10-15T05:24:30.281Z,13.30
2022-10-15T05:27:28.198Z,13.30
2022-10-15T05:30:00.011Z,13.30
2022-10-15T05:32:40.367Z,13.30
2022-10-15T05:35:15.940Z,13.30
2022-10-15T05:38:04.588Z,13.30
2022-10-15T05:40:36.340Z,13.30
2022-10-15T05:43:16.106Z,13.30
2022-10-15T05:45:47.868Z,13.30
2022-10-15T05:48:19.794Z,13.30
2022-10-15T05:50:52.371Z,13.30
2022-10-15T05:53:29.664Z,13.40
2022-10-15T05:56:08.331Z,13.30
2022-10-15T05:58:40.608Z,13.40
2022-10-15T06:01:13.212Z,13.40
2022-10-15T06:03:47.019Z,13.30
2022-10-15T06:06:24.257Z,13.40
2022-10-15T06:08:56.065Z,13.30
2022-10-15T06:11:27.940Z,13.30
2022-10-15T06:13:59.661Z,13.30
2022-10-15T06:16:31.459Z,13.40
2022-10-15T06:19:03.484Z,13.30
2022-10-15T06:21:35.208Z,13.30
2022-10-15T06:24:09.888Z,13.30
2022-10-15T06:26:42.006Z,13.40
2022-10-15T06:29:13.855Z,13.40
2022-10-15T06:31:45.617Z,13.40
2022-10-15T06:34:17.454Z,13.40
2022-10-15T06:36:49.167Z,13.40
2022-10-15T06:39:20.888Z,13.40
2022-10-15T06:41:52.709Z,13.40
2022-10-15T06:44:24.873Z,13.40
2022-10-15T06:46:58.896Z,13.40
2022-10-15T06:49:30.650Z,13.40
2022-10-15T06:52:03.619Z,13.50
2022-10-15T06:54:35.736Z,13.40
2022-10-15T06:57:09.290Z,13.40
2022-10-15T06:59:41.623Z,13.50
2022-10-15T07:02:17.739Z,13.50
2022-10-15T07:04:49.463Z,13.50
2022-10-15T07:07:25.383Z,13.50
2022-10-15T07:09:57.144Z,13.50
2022-10-15T07:12:28.884Z,13.50
2022-10-15T07:15:00.706Z,13.60
2022-10-15T07:17:35.131Z,13.60
2022-10-15T07:20:07.694Z,13.70
2022-10-15T07:22:39.446Z,13.70
2022-10-15T07:25:11.639Z,13.80
2022-10-15T07:27:43.464Z,13.80
2022-10-15T07:30:15.375Z,13.90
2022-10-15T07:32:47.102Z,13.90
2022-10-15T07:35:18.884Z,13.90
2022-10-15T07:37:50.840Z,13.90
2022-10-15T07:40:22.834Z,13.90
2022-10-15T07:42:56.309Z,13.90
2022-10-15T07:45:30.184Z,13.90
2022-10-15T07:48:01.989Z,13.90
2022-10-15T07:50:35.536Z,13.90
2022-10-15T07:53:10.940Z,14.00
2022-10-15T07:55:42.774Z,14.00
2022-10-15T07:58:14.675Z,14.10
2022-10-15T08:00:46.490Z,14.10
2022-10-15T08:03:18.304Z,14.10
2022-10-15T08:05:53.139Z,14.20
2022-10-15T08:08:26.399Z,14.20
2022-10-15T08:10:58.319Z,14.20
2022-10-15T08:13:30.087Z,14.20
2022-10-15T08:16:01.851Z,14.20
2022-10-15T08:18:33.683Z,14.20
2022-10-15T08:21:07.664Z,12.20
2022-10-15T08:23:39.670Z,14.20
2022-10-15T08:26:11.606Z,14.30
2022-10-15T08:28:43.413Z,14.30
2022-10-15T08:31:15.270Z,14.40
2022-10-15T08:33:47.123Z,14.40
2022-10-15T08:36:19.116Z,14.40
2022-10-15T08:38:50.929Z,14.50
2022-10-15T08:41:22.702Z,14.50
2022-10-15T08:43:54.592Z,14.50
2022-10-15T08:46:34.873Z,14.50
2022-10-15T08:49:14.127Z,14.60
2022-10-15T08:51:50.544Z,14.60
2022-10-15T08:54:25.045Z,14.70
2022-10-15T08:57:10.575Z,14.70
2022-10-15T09:00:08.085Z,14.80
2022-10-15T09:02:45.783Z,14.80
2022-10-15T09:05:52.991Z,14.90
2022-10-15T09:08:43.560Z,15.00
2022-10-15T09:11:41.744Z,15.00
2022-10-15T09:14:17.850Z,15.10
2022-10-15T09:16:50.658Z,15.20
2022-10-15T09:19:25.964Z,15.20
2022-10-15T09:22:00.962Z,15.30
2022-10-15T09:24:33.268Z,15.30
2022-10-15T09:27:15.508Z,15.40
2022-10-15T09:30:26.220Z,15.50
2022-10-15T09:33:15.812Z,15.70
2022-10-15T09:35:55.884Z,15.80
2022-10-15T09:38:48.072Z,15.70
2022-10-15T09:41:54.677Z,15.80
2022-10-15T09:44:38.514Z,15.90
2022-10-15T09:47:27.384Z,16.00
2022-10-15T09:50:06.914Z,16.00
2022-10-15T09:53:15.781Z,16.10
2022-10-15T09:56:24.374Z,16.00
2022-10-15T09:58:58.175Z,16.10
2022-10-15T10:01:33.376Z,16.10
2022-10-15T10:04:20.148Z,16.10
2022-10-15T10:06:58.039Z,16.20
2022-10-15T10:09:34.695Z,16.20
2022-10-15T10:12:20.126Z,16.20
2022-10-15T10:14:59.679Z,16.20
2022-10-15T10:17:32.379Z,16.30
2022-10-15T10:20:15.526Z,16.30
2022-10-15T10:22:51.536Z,16.30
2022-10-15T10:25:29.213Z,16.20
2022-10-15T10:28:05.948Z,16.20
2022-10-15T10:30:39.244Z,16.30
2022-10-15T10:33:14.691Z,16.40
2022-10-15T10:35:50.511Z,16.40
2022-10-15T10:38:37.707Z,16.50
2022-10-15T10:41:11.837Z,16.60
2022-10-15T10:43:54.336Z,16.60
2022-10-15T10:46:26.088Z,16.60
2022-10-15T10:48:58.704Z,16.60
2022-10-15T10:51:30.926Z,16.70
2022-10-15T10:54:04.508Z,16.80
2022-10-15T10:56:42.549Z,16.80
2022-10-15T10:59:29.734Z,16.80
2022-10-15T11:02:03.658Z,17.00
2022-10-15T11:04:38.059Z,17.20
2022-10-15T11:07:17.248Z,17.40
2022-10-15T11:10:16.144Z,17.50
2022-10-15T11:13:03.938Z,17.60
2022-10-15T11:16:17.247Z,17.70
2022-10-15T11:18:48.944Z,17.70
2022-10-15T11:21:48.519Z,17.70
2022-10-15T11:24:23.615Z,17.60
2022-10-15T11:27:26.758Z,17.50
2022-10-15T11:30:19.812Z,17.50
2022-10-15T11:33:09.142Z,17.50
2022-10-15T11:35:53.448Z,17.50
2022-10-15T11:39:03.240Z,17.60
2022-10-15T11:42:14.176Z,17.60
2022-10-15T11:45:12.723Z,17.70
2022-10-15T11:47:53.850Z,17.90
2022-10-15T11:50:44.884Z,17.80
2022-10-15T11:53:41.381Z,17.80
2022-10-15T11:56:16.869Z,17.80
2022-10-15T11:59:30.342Z,17.70
2022-10-15T12:02:28.442Z,17.60
2022-10-15T12:05:16.652Z,17.70
2022-10-15T12:07:49.998Z,17.80
2022-10-15T12:10:39.699Z,17.90
2022-10-15T12:13:49.819Z,18.00
2022-10-15T12:17:04.739Z,18.10
2022-10-15T12:19:54.686Z,18.20
2022-10-15T12:22:54.045Z,18.30
2022-10-15T12:25:35.069Z,18.40
2022-10-15T12:28:13.000Z,18.60
2022-10-15T12:30:55.593Z,18.60
2022-10-15T12:33:37.565Z,18.60
2022-10-15T12:36:30.764Z,18.60
2022-10-15T12:39:12.796Z,18.70
2022-10-15T12:41:53.339Z,18.70
2022-10-15T12:44:34.767Z,18.70
2022-10-15T12:47:10.349Z,18.60
2022-10-15T12:49:42.108Z,18.70
2022-10-15T12:52:52.684Z,18.70
2022-10-15T12:55:38.080Z,18.80
2022-10-15T12:58:36.052Z,18.90
2022-10-15T13:01:13.953Z,19.20
2022-10-15T13:03:48.948Z,19.30
2022-10-15T13:06:20.732Z,19.40
2022-10-15T13:09:43.062Z,19.40
2022-10-15T13:12:28.645Z,19.20
2022-10-15T13:15:06.084Z,19.10
2022-10-15T13:17:39.714Z,19.10
2022-10-15T13:20:28.727Z,19.10
2022-10-15T13:23:32.038Z,19.10
2022-10-15T13:26:16.218Z,19.10
2022-10-15T13:28:55.210Z,18.90
2022-10-15T13:31:32.424Z,18.70
2022-10-15T13:34:41.538Z,18.60
2022-10-15T13:37:19.160Z,18.40
2022-10-15T13:39:52.520Z,18.40
2022-10-15T13:42:26.385Z,18.40
2022-10-15T13:45:05.759Z,18.10
2022-10-15T13:47:42.090Z,17.90
2022-10-15T13:50:19.675Z,17.70
2022-10-15T13:53:13.787Z,17.50
2022-10-15T13:55:54.919Z,17.50
2022-10-15T13:58:29.350Z,17.40
2022-10-15T14:01:03.293Z,17.40
2022-10-15T14:03:37.024Z,17.40
2022-10-15T14:06:21.483Z,17.40
2022-10-15T14:08:56.350Z,17.60
2022-10-15T14:11:29.886Z,17.70
2022-10-15T14:14:01.721Z,17.70
2022-10-15T14:16:42.369Z,17.80
2022-10-15T14:19:26.925Z,17.80
2022-10-15T14:22:00.476Z,17.80
2022-10-15T14:24:35.794Z,17.80
2022-10-15T14:27:21.043Z,18.00
2022-10-15T14:29:58.582Z,18.10
2022-10-15T14:32:49.418Z,17.30
2022-10-15T14:35:35.720Z,18.30
2022-10-15T14:38:10.264Z,18.40
2022-10-15T14:40:56.240Z,18.50
2022-10-15T14:43:38.099Z,18.50
2022-10-15T14:46:18.804Z,18.50
2022-10-15T14:48:51.052Z,18.40
2022-10-15T14:51:26.236Z,18.40
2022-10-15T14:53:59.077Z,18.30
2022-10-15T14:56:33.219Z,18.40
2022-10-15T14:59:08.979Z,18.40
2022-10-15T15:01:40.966Z,18.40
2022-10-15T15:04:36.299Z,18.40
2022-10-15T15:07:14.172Z,18.30
2022-10-15T15:09:50.497Z,18.10
2022-10-15T15:12:27.675Z,18.00
2022-10-15T15:15:00.548Z,17.90
2022-10-15T15:17:32.554Z,17.90
2022-10-15T15:22:42.579Z,17.80
2022-10-15T15:25:37.078Z,17.70
2022-10-15T15:28:14.550Z,17.70
2022-10-15T15:30:50.472Z,17.60
2022-10-15T15:33:22.290Z,17.60
2022-10-15T15:36:00.427Z,17.60
2022-10-15T15:38:33.458Z,17.60
2022-10-15T15:41:16.746Z,17.60
2022-10-15T15:43:49.414Z,17.60
2022-10-15T15:46:21.145Z,17.50
2022-10-15T15:48:52.873Z,17.50
2022-10-15T15:51:30.361Z,17.40
2022-10-15T15:54:04.552Z,17.40
2022-10-15T15:56:36.529Z,17.20
2022-10-15T15:59:08.307Z,17.10
2022-10-15T16:01:40.182Z,17.10
2022-10-15T16:04:12.653Z,17.00
2022-10-15T16:06:48.810Z,16.90
2022-10-15T16:09:22.548Z,16.80
2022-10-15T16:11:54.295Z,16.80
2022-10-15T16:14:26.160Z,16.60
2022-10-15T16:16:58.161Z,16.50
2022-10-15T16:19:29.887Z,16.40
2022-10-15T16:22:01.688Z,16.40
2022-10-15T16:24:33.637Z,16.30
2022-10-15T16:27:05.438Z,16.30
2022-10-15T16:29:37.217Z,16.20
2022-10-15T16:32:09.100Z,16.20
2022-10-15T16:34:40.850Z,16.10
2022-10-15T16:37:12.633Z,16.10
2022-10-15T16:39:44.537Z,16.10
2022-10-15T16:44:53.128Z,16.10
2022-10-15T16:47:25.289Z,16.00
2022-10-15T16:49:57.300Z,16.00
2022-10-15T16:52:29.163Z,16.00
2022-10-15T16:55:01.032Z,16.00
2022-10-15T16:57:32.945Z,15.90
2022-10-15T17:00:05.308Z,15.90
2022-10-15T17:02:37.210Z,15.90
2022-10-15T17:05:09.118Z,15.90
2022-10-15T17:07:40.976Z,15.80
2022-10-15T17:10:14.840Z,15.80
2022-10-15T17:12:46.811Z,15.70
2022-10-15T17:15:18.627Z,15.80
2022-10-15T17:17:50.468Z,15.80
2022-10-15T17:20:22.183Z,15.80
2022-10-15T17:22:53.904Z,15.90
2022-10-15T17:25:25.884Z,15.90
2022-10-15T17:27:57.666Z,16.00
2022-10-15T17:30:29.455Z,16.00
2022-10-15T17:33:01.291Z,16.00
2022-10-15T17:35:36.740Z,16.00
2022-10-15T17:38:08.467Z,16.00
2022-10-15T17:40:40.790Z,16.00
2022-10-15T17:43:12.577Z,16.00
2022-10-15T17:45:45.237Z,16.00
2022-10-15T17:48:17.251Z,16.10
2022-10-15T17:50:49.386Z,16.10
2022-10-15T17:53:21.327Z,16.10
2022-10-15T17:55:53.171Z,16.00
2022-10-15T17:58:25.750Z,16.00
2022-10-15T18:00:58.449Z,16.00
2022-10-15T18:03:30.194Z,16.00
2022-10-15T18:06:15.706Z,16.00
2022-10-15T18:08:47.539Z,16.00
2022-10-15T18:11:25.905Z,16.00
2022-10-15T18:13:57.859Z,15.90
2022-10-15T18:16:29.886Z,15.90
2022-10-15T18:19:01.623Z,15.90
2022-10-15T18:21:33.391Z,15.80
2022-10-15T18:24:06.891Z,15.80
2022-10-15T18:26:38.651Z,15.80
2022-10-15T18:29:11.174Z,15.90
2022-10-15T18:31:43.436Z,15.80
2022-10-15T18:34:15.416Z,15.80
2022-10-15T18:36:47.204Z,15.80
2022-10-15T18:39:19.076Z,15.80
2022-10-15T18:41:50.801Z,15.70
2022-10-15T18:44:23.614Z,15.80
2022-10-15T18:46:55.327Z,15.80
2022-10-15T18:49:27.115Z,15.70
2022-10-15T18:52:06.349Z,15.70
2022-10-15T18:54:47.728Z,15.70
2022-10-15T18:57:19.493Z,15.70
2022-10-15T18:59:54.337Z,15.70
2022-10-15T19:02:26.533Z,15.70
2022-10-15T19:04:58.663Z,15.70
2022-10-15T19:07:31.743Z,15.70
2022-10-15T19:10:04.610Z,15.60
2022-10-15T19:12:36.336Z,15.60
2022-10-15T19:15:08.577Z,15.60
2022-10-15T19:17:40.345Z,15.50
2022-10-15T19:20:12.461Z,15.50
2022-10-15T19:22:45.339Z,15.50
2022-10-15T19:25:17.144Z,15.50
2022-10-15T19:27:49.511Z,15.50
2022-10-15T19:30:21.260Z,15.50
2022-10-15T19:32:52.993Z,15.40
2022-10-15T19:35:24.718Z,15.40
2022-10-15T19:37:58.828Z,15.50
2022-10-15T19:40:30.662Z,15.50
2022-10-15T19:43:02.438Z,15.40
2022-10-15T19:45:43.028Z,15.40
2022-10-15T19:48:18.294Z,15.40
2022-10-15T19:50:50.136Z,15.30
2022-10-15T19:53:21.948Z,15.30
2022-10-15T19:55:59.348Z,15.30
2022-10-15T19:58:31.495Z,15.20
2022-10-15T20:01:05.424Z,15.30
2022-10-15T20:03:38.465Z,15.30
2022-10-15T20:06:10.240Z,15.20
2022-10-15T20:08:42.230Z,15.20
2022-10-15T20:11:14.315Z,15.10
2022-10-15T20:13:46.629Z,15.10
2022-10-15T20:16:20.923Z,15.10
2022-10-15T20:18:56.546Z,16.40
2022-10-15T20:21:28.597Z,15.10
2022-10-15T20:24:03.867Z,15.10
2022-10-15T20:26:35.629Z,15.10
2022-10-15T20:29:07.429Z,15.10
2022-10-15T20:31:39.356Z,15.10
2022-10-15T20:34:11.273Z,15.10
2022-10-15T20:36:43.160Z,15.00
2022-10-15T20:39:14.908Z,15.10
2022-10-15T20:41:47.353Z,15.10
2022-10-15T20:44:19.309Z,15.10
2022-10-15T20:46:58.785Z,15.10
2022-10-15T20:49:35.615Z,15.00
2022-10-15T20:52:08.473Z,15.10
2022-10-15T20:54:40.327Z,15.10
2022-10-15T20:57:12.745Z,15.00
2022-10-15T20:59:44.522Z,15.10
2022-10-15T21:02:16.284Z,15.10
2022-10-15T21:04:48.319Z,15.10
2022-10-15T21:09:58.568Z,15.00
2022-10-15T21:12:30.537Z,15.00
2022-10-15T21:15:02.435Z,15.00
2022-10-15T21:17:34.194Z,15.10
2022-10-15T21:20:06.736Z,15.10
2022-10-15T21:22:38.467Z,15.10
2022-10-15T21:25:10.278Z,15.10
2022-10-15T21:27:42.210Z,15.10
2022-10-15T21:30:14.055Z,15.10
2022-10-15T21:32:45.793Z,15.10
2022-10-15T21:35:17.670Z,15.10
2022-10-15T21:37:51.285Z,15.10
2022-10-15T21:40:23.139Z,15.10
2022-10-15T21:42:54.867Z,15.10
2022-10-15T21:45:26.647Z,15.10
2022-10-15T21:47:58.586Z,15.10
2022-10-15T21:50:30.603Z,15.10
2022-10-15T21:53:03.632Z,15.10
2022-10-15T21:55:35.435Z,15.10
2022-10-15T21:58:07.210Z,15.00
2022-10-15T22:00:39.130Z,15.00
2022-10-15T22:03:10.891Z,15.10
2022-10-15T22:05:42.690Z,15.10
2022-10-15T22:08:14.714Z,15.10
2022-10-15T22:10:46.516Z,15.00
2022-10-15T22:13:18.258Z,15.00
2022-10-15T22:15:49.973Z,15.10
2022-10-15T22:18:21.708Z,15.10
2022-10-15T22:20:53.825Z,15.10
2022-10-15T22:23:27.768Z,15.10
2022-10-15T22:25:59.961Z,15.10
2022-10-15T22:28:31.827Z,15.10
2022-10-15T22:31:09.247Z,15.00
2022-10-15T22:33:41.673Z,15.00
2022-10-15T22:36:18.499Z,15.00
2022-10-15T22:41:33.934Z,15.00
2022-10-15T22:44:06.940Z,14.90
2022-10-15T22:46:40.072Z,14.90
2022-10-15T22:49:13.324Z,14.90
2022-10-15T22:51:45.094Z,14.90
2022-10-15T22:54:18.142Z,14.90
2022-10-15T22:56:50.742Z,14.90
2022-10-15T22:59:22.619Z,14.80
2022-10-15T23:01:54.386Z,14.80
2022-10-15T23:04:26.116Z,14.90
2022-10-15T23:06:57.827Z,14.80
2022-10-15T23:09:29.668Z,14.80
2022-10-15T23:12:01.432Z,14.90
2022-10-15T23:14:33.148Z,14.90
2022-10-15T23:17:04.871Z,14.80
2022-10-15T23:19:36.576Z,14.80
2022-10-15T23:22:10.601Z,14.80
2022-10-15T23:24:42.338Z,14.80
2022-10-15T23:27:15.088Z,14.80
2022-10-15T23:29:53.464Z,14.80
2022-10-15T23:32:33.826Z,14.80
2022-10-15T23:35:11.292Z,14.80
2022-10-15T23:37:43.130Z,14.70
2022-10-15T23:40:14.920Z,14.70
2022-10-15T23:42:46.645Z,14.70
2022-10-15T23:45:18.382Z,14.70
2022-10-15T23:47:50.098Z,14.70
2022-10-15T23:50:21.862Z,14.80
2022-10-15T23:52:53.584Z,14.70
2022-10-15T23:55:25.309Z,14.70
2022-10-15T23:57:57.064Z,14.70
